Time;durP1;ratioP1;P1;durP2;ratioP2;P2;SDS_P1;SDS_P2;PMS_P1;PMS_P2;Temp;Humidity;BMP_temperature;BMP_pressure;BME280_temperature;BME280_humidity;BME280_pressure;Samples;Min_cycle;Max_cycle;Signal;HPM_P1;HPM_P2
2023/04/25 00:01:37;;;;;;;17.73;4.65;;;7.30;99.90;;;;;;5073221;28;20099;-73
2023/04/25 00:04:05;;;;;;;16.67;4.95;;;7.20;99.90;;;;;;5073211;28;20044;-73
2023/04/25 00:06:32;;;;;;;18.13;4.45;;;7.20;99.90;;;;;;5073026;28;20162;-73
2023/04/25 00:08:57;;;;;;;14.30;3.63;;;7.30;99.90;;;;;;5074548;28;20032;-72
2023/04/25 00:11:23;;;;;;;17.10;5.05;;;7.20;99.90;;;;;;5073330;28;20063;-73
2023/04/25 00:13:52;;;;;;;21.50;4.25;;;7.20;99.90;;;;;;5073005;28;20039;-72
2023/04/25 00:16:18;;;;;;;19.08;4.78;;;7.20;99.90;;;;;;5072763;28;20032;-73
2023/04/25 00:18:46;;;;;;;14.95;4.57;;;7.10;99.90;;;;;;5073032;28;20389;-72
2023/04/25 00:21:11;;;;;;;20.80;4.72;;;7.10;99.90;;;;;;5072909;28;20063;-73
2023/04/25 00:23:38;;;;;;;19.52;4.30;;;7.10;99.90;;;;;;5074168;28;20484;-73
2023/04/25 00:26:04;;;;;;;18.38;3.88;;;7.10;99.90;;;;;;5072499;28;20044;-73
2023/04/25 00:28:30;;;;;;;20.20;6.00;;;7.10;99.90;;;;;;5074292;28;20458;-73
2023/04/25 00:30:55;;;;;;;19.27;4.70;;;7.10;99.90;;;;;;5072646;28;20036;-73
2023/04/25 00:33:21;;;;;;;19.05;5.45;;;7.10;99.90;;;;;;5072712;28;20044;-72
2023/04/25 00:35:46;;;;;;;18.98;4.05;;;7.10;99.90;;;;;;5072682;28;20047;-73
2023/04/25 00:38:12;;;;;;;15.15;3.72;;;7.10;99.90;;;;;;5072511;28;20040;-73
2023/04/25 00:40:37;;;;;;;26.02;5.45;;;7.10;99.90;;;;;;5072275;28;20036;-72
2023/04/25 00:43:03;;;;;;;19.27;4.50;;;7.00;99.90;;;;;;5071464;28;20087;-72
2023/04/25 00:45:30;;;;;;;12.60;4.00;;;7.00;99.90;;;;;;5072321;28;20044;-72
2023/04/25 00:47:56;;;;;;;18.20;3.78;;;7.00;99.90;;;;;;5073734;28;20046;-72
2023/04/25 00:50:22;;;;;;;14.02;4.47;;;7.00;99.90;;;;;;5072460;28;20249;-73
2023/04/25 00:52:47;;;;;;;15.43;4.53;;;6.70;99.90;;;;;;5072484;28;20127;-72
2023/04/25 00:55:13;;;;;;;16.13;4.55;;;6.70;99.90;;;;;;5072275;28;20052;-72
2023/04/25 00:57:40;;;;;;;19.52;4.25;;;6.60;99.90;;;;;;5073246;28;20036;-72
2023/04/25 01:00:09;;;;;;;12.30;3.83;;;6.60;99.90;;;;;;5072289;28;20048;-72
2023/04/25 01:02:36;;;;;;;12.77;3.22;;;6.60;99.90;;;;;;5072080;28;20496;-72
2023/04/25 01:05:02;;;;;;;14.20;3.63;;;6.60;99.90;;;;;;5072444;28;20423;-72
2023/04/25 01:07:28;;;;;;;10.23;5.18;;;6.60;99.90;;;;;;5071938;28;20496;-73
2023/04/25 01:09:54;;;;;;;14.00;3.20;;;6.60;99.90;;;;;;5072155;28;20056;-72
2023/04/25 01:12:20;;;;;;;9.85;2.47;;;6.60;99.90;;;;;;5072219;28;20519;-73
2023/04/25 01:14:46;;;;;;;12.48;3.80;;;6.60;99.90;;;;;;5055107;28;20511;-72
2023/04/25 01:17:12;;;;;;;12.45;3.30;;;6.50;99.90;;;;;;5071597;28;20063;-72
2023/04/25 01:19:38;;;;;;;10.80;2.85;;;6.60;99.90;;;;;;5071813;28;20040;-72
2023/04/25 01:22:04;;;;;;;9.77;3.17;;;6.50;99.90;;;;;;5071788;28;20043;-72
2023/04/25 01:24:32;;;;;;;10.23;3.30;;;6.60;99.90;;;;;;5071565;28;20048;-73
2023/04/25 01:27:00;;;;;;;12.32;3.28;;;6.50;99.90;;;;;;5055054;28;20569;-73
2023/04/25 01:29:26;;;;;;;9.77;2.78;;;6.60;99.90;;;;;;5054900;28;20463;-73
2023/04/25 01:31:53;;;;;;;17.23;3.88;;;6.60;99.90;;;;;;5071791;28;20044;-73
2023/04/25 01:34:19;;;;;;;15.73;3.20;;;6.50;99.90;;;;;;5071495;28;20036;-73
2023/04/25 01:36:44;;;;;;;11.70;2.78;;;6.50;99.90;;;;;;5071155;28;20072;-73
2023/04/25 01:39:10;;;;;;;16.23;3.05;;;6.60;99.90;;;;;;5071179;28;20460;-73
2023/04/25 01:41:36;;;;;;;14.50;2.58;;;6.50;99.90;;;;;;5071303;28;20059;-73
2023/04/25 01:44:02;;;;;;;13.77;2.70;;;6.60;99.90;;;;;;5054584;28;20123;-72
2023/04/25 01:46:28;;;;;;;11.48;3.60;;;6.60;99.90;;;;;;5071101;28;20044;-72
2023/04/25 01:48:54;;;;;;;13.88;2.53;;;6.60;99.90;;;;;;5071291;28;20110;-73
2023/04/25 01:51:20;;;;;;;13.88;2.90;;;6.60;99.90;;;;;;5071149;28;20426;-73
2023/04/25 01:53:45;;;;;;;19.27;2.92;;;6.50;99.90;;;;;;5072811;28;20051;-73
2023/04/25 01:56:11;;;;;;;10.43;3.47;;;6.50;99.90;;;;;;5070718;28;20409;-72
2023/04/25 01:58:37;;;;;;;9.40;3.22;;;6.50;99.90;;;;;;5071215;28;20033;-72
2023/04/25 02:01:02;;;;;;;13.77;3.38;;;6.60;99.90;;;;;;5071148;28;20044;-73
2023/04/25 02:03:29;;;;;;;12.63;3.35;;;6.50;99.90;;;;;;5072222;28;20385;-72
2023/04/25 02:05:55;;;;;;;11.35;3.65;;;6.50;99.90;;;;;;5071032;28;20044;-72
2023/04/25 02:08:21;;;;;;;13.95;3.38;;;6.50;99.90;;;;;;5071154;28;20078;-72
2023/04/25 02:10:46;;;;;;;15.13;3.78;;;6.50;99.90;;;;;;5072378;28;20029;-72
2023/04/25 02:13:12;;;;;;;10.07;2.70;;;6.50;99.90;;;;;;5070781;28;20114;-72
2023/04/25 02:15:37;;;;;;;11.43;2.33;;;6.50;99.90;;;;;;5070882;28;20121;-72
2023/04/25 02:18:03;;;;;;;17.20;3.35;;;6.50;99.90;;;;;;5070857;28;20060;-73
2023/04/25 02:20:30;;;;;;;12.13;2.72;;;6.50;99.90;;;;;;5070813;28;20044;-72
2023/04/25 02:22:56;;;;;;;9.35;2.85;;;6.50;99.90;;;;;;5054013;28;20045;-72
2023/04/25 02:25:22;;;;;;;14.05;2.88;;;6.60;99.90;;;;;;5070555;28;20143;-73
2023/04/25 02:27:48;;;;;;;15.27;2.92;;;6.60;99.90;;;;;;5071682;28;20048;-72
2023/04/25 02:30:14;;;;;;;13.98;2.83;;;6.50;99.90;;;;;;5053852;28;20043;-72
2023/04/25 02:32:40;;;;;;;9.68;3.13;;;6.50;99.90;;;;;;5071988;28;20439;-72
2023/04/25 02:35:06;;;;;;;14.63;2.70;;;6.50;99.90;;;;;;5053773;28;20045;-73
2023/04/25 02:37:37;;;;;;;19.58;3.05;;;6.40;99.90;;;;;;5071546;28;20048;-72
2023/04/25 02:40:04;;;;;;;11.30;2.78;;;6.40;99.90;;;;;;5053606;28;20040;-73
2023/04/25 02:42:30;;;;;;;11.90;2.83;;;6.40;99.90;;;;;;5071846;28;20412;-72
2023/04/25 02:44:56;;;;;;;15.20;3.83;;;6.40;99.90;;;;;;5053467;28;20033;-72
2023/04/25 02:47:21;;;;;;;13.07;2.85;;;6.40;99.90;;;;;;5053485;28;20048;-72
2023/04/25 02:49:47;;;;;;;13.82;2.95;;;6.40;99.90;;;;;;5071550;28;20044;-72
2023/04/25 02:52:12;;;;;;;10.77;3.58;;;6.40;99.90;;;;;;5071522;28;20404;-72
2023/04/25 02:54:39;;;;;;;14.77;3.50;;;6.40;99.90;;;;;;5053360;28;20044;-72
2023/04/25 02:57:05;;;;;;;13.80;2.65;;;6.40;99.90;;;;;;5053412;28;20059;-73
2023/04/25 02:59:31;;;;;;;17.65;2.92;;;6.40;99.90;;;;;;5053690;28;20056;-72
2023/04/25 03:01:56;;;;;;;15.70;2.80;;;6.30;99.90;;;;;;5071364;28;20492;-72
2023/04/25 03:04:23;;;;;;;11.60;2.90;;;6.30;99.90;;;;;;5036942;28;20111;-72
2023/04/25 03:06:52;;;;;;;9.40;2.72;;;6.30;99.90;;;;;;5054425;28;20036;-72
2023/04/25 03:09:18;;;;;;;13.32;2.90;;;6.30;99.90;;;;;;5057097;28;20036;-72
2023/04/25 03:11:44;;;;;;;15.00;2.53;;;6.30;99.90;;;;;;5057258;28;20094;-72
2023/04/25 03:14:10;;;;;;;13.07;2.97;;;6.30;99.90;;;;;;5057411;28;20043;-72
2023/04/25 03:16:36;;;;;;;13.70;3.42;;;6.30;99.90;;;;;;5057152;28;20119;-72
2023/04/25 03:19:02;;;;;;;14.40;3.17;;;6.30;99.90;;;;;;5057559;28;20469;-72
2023/04/25 03:21:28;;;;;;;10.02;2.50;;;6.30;99.90;;;;;;5057447;28;20041;-72
2023/04/25 03:23:54;;;;;;;10.65;2.70;;;6.30;99.90;;;;;;5040687;28;20029;-72
2023/04/25 03:26:20;;;;;;;13.45;3.38;;;6.40;99.90;;;;;;5057237;28;20040;-72
2023/04/25 03:28:45;;;;;;;9.80;2.35;;;6.30;99.90;;;;;;5057229;28;20124;-72
2023/04/25 03:31:11;;;;;;;12.85;2.42;;;6.30;99.90;;;;;;5057194;28;20412;-72
2023/04/25 03:33:37;;;;;;;8.73;3.45;;;6.30;99.90;;;;;;5057043;28;20045;-72
2023/04/25 03:36:03;;;;;;;4.85;2.42;;;6.30;99.90;;;;;;5057093;28;20044;-72
2023/04/25 03:38:28;;;;;;;10.82;2.75;;;6.20;99.90;;;;;;5056938;28;20048;-73
2023/04/25 03:40:55;;;;;;;8.02;1.75;;;6.20;99.90;;;;;;5057132;28;20048;-72
2023/04/25 03:43:21;;;;;;;9.23;2.70;;;6.20;99.90;;;;;;5056853;28;20542;-72
2023/04/25 03:45:47;;;;;;;12.57;3.05;;;6.10;99.90;;;;;;5056844;28;20040;-73
2023/04/25 03:48:12;;;;;;;12.93;2.97;;;6.10;99.90;;;;;;5056764;28;20500;-72
2023/04/25 03:50:38;;;;;;;12.57;2.38;;;6.00;99.90;;;;;;5056624;28;20518;-72
2023/04/25 03:53:03;;;;;;;8.10;2.63;;;6.00;99.90;;;;;;5056735;28;20123;-73
2023/04/25 03:55:29;;;;;;;9.52;2.35;;;5.90;99.90;;;;;;5074652;28;20076;-73
2023/04/25 03:57:54;;;;;;;10.38;2.55;;;5.90;99.90;;;;;;5074615;28;20414;-72
2023/04/25 04:00:20;;;;;;;12.93;3.72;;;5.90;99.90;;;;;;5074348;28;20040;-72
2023/04/25 04:02:46;;;;;;;9.00;2.25;;;5.80;99.90;;;;;;5056393;28;20111;-72
2023/04/25 04:05:11;;;;;;;10.98;2.88;;;5.80;99.90;;;;;;5056512;28;20042;-72
2023/04/25 04:07:39;;;;;;;10.65;2.50;;;5.80;99.90;;;;;;5056394;28;20447;-72
2023/04/25 04:10:09;;;;;;;10.02;1.90;;;5.80;99.90;;;;;;5074259;28;20051;-72
2023/04/25 04:12:34;;;;;;;14.75;2.35;;;5.80;99.90;;;;;;5056694;28;20040;-72
2023/04/25 04:15:01;;;;;;;10.77;2.67;;;5.80;99.90;;;;;;5074143;28;20046;-72
2023/04/25 04:17:27;;;;;;;10.45;2.65;;;5.80;99.90;;;;;;5055784;28;20055;-73
2023/04/25 04:19:52;;;;;;;11.57;2.75;;;5.70;99.90;;;;;;5074193;28;20407;-72
2023/04/25 04:22:18;;;;;;;9.15;2.50;;;5.80;99.90;;;;;;5074147;28;20432;-72
2023/04/25 04:24:43;;;;;;;10.57;2.05;;;5.70;99.90;;;;;;5056025;28;20492;-72
2023/04/25 04:27:10;;;;;;;11.77;3.20;;;5.70;99.90;;;;;;5056103;28;20045;-73
2023/04/25 04:29:36;;;;;;;6.78;2.30;;;5.70;99.90;;;;;;5055592;28;20036;-72
2023/04/25 04:32:03;;;;;;;10.57;3.17;;;5.60;99.90;;;;;;5073893;28;20396;-73
2023/04/25 04:34:28;;;;;;;13.77;2.55;;;5.60;99.90;;;;;;5055889;28;20109;-72
2023/04/25 04:36:54;;;;;;;13.90;2.45;;;5.60;99.90;;;;;;5039339;28;20552;-72
2023/04/25 04:39:21;;;;;;;7.30;2.38;;;5.60;99.90;;;;;;5055666;28;20041;-72
2023/04/25 04:41:46;;;;;;;14.95;2.95;;;5.60;99.90;;;;;;5039149;28;20617;-72
2023/04/25 04:44:12;;;;;;;9.40;2.85;;;5.60;99.90;;;;;;5055834;28;20048;-72
2023/04/25 04:46:41;;;;;;;11.68;3.25;;;5.60;99.90;;;;;;5055222;28;20149;-72
2023/04/25 04:49:08;;;;;;;8.85;2.60;;;5.60;99.90;;;;;;5056020;28;20490;-73
2023/04/25 04:51:34;;;;;;;8.55;2.28;;;5.60;99.90;;;;;;5074061;28;20049;-73
2023/04/25 04:54:02;;;;;;;8.18;2.67;;;5.60;99.90;;;;;;5073713;28;20416;-73
2023/04/25 04:56:29;;;;;;;8.15;2.47;;;5.60;99.90;;;;;;5055440;28;20107;-73
2023/04/25 04:58:54;;;;;;;13.43;2.65;;;5.60;99.90;;;;;;5073504;28;20036;-72
2023/04/25 05:01:20;;;;;;;12.38;2.63;;;5.60;99.90;;;;;;5054424;28;20106;-73
2023/04/25 05:03:46;;;;;;;6.78;2.00;;;5.60;99.90;;;;;;5054210;28;20123;-73
2023/04/25 05:06:11;;;;;;;10.75;2.67;;;5.70;99.90;;;;;;5072450;28;20063;-73
2023/04/25 05:08:37;;;;;;;16.20;2.22;;;5.80;99.90;;;;;;5055305;28;20051;-73
2023/04/25 05:11:02;;;;;;;9.60;3.72;;;6.00;99.90;;;;;;5055404;28;20048;-73
2023/04/25 05:13:28;;;;;;;11.32;2.38;;;6.00;99.90;;;;;;5073343;28;20048;-73
2023/04/25 05:15:53;;;;;;;6.90;3.20;;;6.00;99.90;;;;;;5055108;28;20090;-72
2023/04/25 05:18:19;;;;;;;17.33;2.97;;;6.10;99.90;;;;;;5055318;28;20048;-72
2023/04/25 05:20:45;;;;;;;7.78;2.25;;;6.10;99.90;;;;;;5055038;28;20241;-72
2023/04/25 05:23:10;;;;;;;8.02;2.50;;;6.00;99.90;;;;;;5054850;28;20407;-72
2023/04/25 05:25:36;;;;;;;5.38;1.67;;;6.00;99.90;;;;;;5054699;28;20521;-72
2023/04/25 05:28:01;;;;;;;3.28;1.30;;;5.90;99.90;;;;;;5054732;28;20040;-72
2023/04/25 05:30:27;;;;;;;5.78;1.63;;;5.90;99.90;;;;;;5054275;28;20092;-73
2023/04/25 05:32:52;;;;;;;5.55;2.10;;;5.80;99.90;;;;;;5055248;28;20404;-72
2023/04/25 05:35:18;;;;;;;4.00;1.40;;;5.80;99.90;;;;;;5054455;28;20044;-72
2023/04/25 05:37:43;;;;;;;7.90;1.63;;;5.70;99.90;;;;;;5054685;28;20047;-72
2023/04/25 05:40:10;;;;;;;8.35;1.35;;;5.70;99.90;;;;;;5054668;28;20036;-72
2023/04/25 05:42:35;;;;;;;4.72;1.65;;;5.70;99.90;;;;;;5089911;22;20047;-73
2023/04/25 05:45:01;;;;;;;4.53;1.05;;;5.80;99.90;;;;;;5094731;28;20414;-73
2023/04/25 05:47:26;;;;;;;11.13;2.15;;;5.80;99.90;;;;;;5094535;28;20028;-74
2023/04/25 05:49:52;;;;;;;11.57;4.32;;;6.00;99.90;;;;;;5095176;28;20051;-74
2023/04/25 05:52:18;;;;;;;7.57;2.22;;;6.40;99.90;;;;;;5094133;28;20486;-73
2023/04/25 05:54:43;;;;;;;7.88;2.15;;;6.80;99.90;;;;;;5094679;28;20090;-73
2023/04/25 05:57:22;;;;;;;10.93;1.83;;;7.10;99.90;;;;;;5113122;28;20035;-74
2023/04/25 05:59:47;;;;;;;3.72;2.00;;;7.40;99.90;;;;;;5095224;28;20044;-74
2023/04/25 06:02:13;;;;;;;9.15;1.52;;;7.30;99.90;;;;;;5094836;28;20045;-74
2023/04/25 06:04:38;;;;;;;7.20;1.50;;;7.20;99.90;;;;;;5094507;28;20515;-74
2023/04/25 06:07:04;;;;;;;6.13;1.75;;;7.00;99.90;;;;;;5094345;28;20114;-74
2023/04/25 06:09:29;;;;;;;10.02;2.03;;;6.90;99.90;;;;;;5112788;28;20110;-74
2023/04/25 06:11:55;;;;;;;4.00;2.08;;;6.70;99.90;;;;;;5094306;28;20506;-74
2023/04/25 06:14:20;;;;;;;5.78;1.23;;;6.60;99.90;;;;;;5094711;28;20044;-73
2023/04/25 06:16:46;;;;;;;7.10;1.67;;;6.30;99.90;;;;;;5112225;28;20043;-73
2023/04/25 06:19:11;;;;;;;8.88;2.10;;;6.10;99.90;;;;;;5112548;28;20043;-73
2023/04/25 06:21:37;;;;;;;5.55;1.90;;;6.10;99.90;;;;;;5112369;28;20035;-73
2023/04/25 06:24:03;;;;;;;5.82;1.80;;;6.10;99.90;;;;;;5112315;28;20043;-73
2023/04/25 06:26:28;;;;;;;5.55;1.55;;;6.20;99.90;;;;;;5085367;28;20042;-74
2023/04/25 06:28:54;;;;;;;8.40;2.13;;;6.20;99.90;;;;;;5100151;28;20051;-73
2023/04/25 06:31:19;;;;;;;6.95;1.40;;;6.30;99.90;;;;;;5106882;28;20510;-73
2023/04/25 06:33:45;;;;;;;7.13;1.95;;;6.40;99.90;;;;;;5112278;28;20483;-73
2023/04/25 06:36:10;;;;;;;11.43;1.70;;;6.50;99.90;;;;;;5112072;28;20031;-73
2023/04/25 06:38:36;;;;;;;6.72;2.30;;;6.50;99.90;;;;;;5112541;28;20110;-73
2023/04/25 06:41:02;;;;;;;8.35;1.50;;;6.60;99.90;;;;;;5076632;28;20112;-73
2023/04/25 06:43:28;;;;;;;5.40;2.35;;;6.80;99.90;;;;;;5093643;28;20047;-74
2023/04/25 06:45:53;;;;;;;5.20;2.03;;;7.00;99.90;;;;;;5093825;28;20040;-73
2023/04/25 06:48:19;;;;;;;4.50;1.67;;;7.50;99.90;;;;;;5094232;28;20036;-73
2023/04/25 06:50:44;;;;;;;9.68;2.50;;;8.00;99.90;;;;;;5094100;28;20050;-73
2023/04/25 06:53:11;;;;;;;11.00;2.08;;;8.30;99.90;;;;;;5094065;28;20071;-73
2023/04/25 06:55:37;;;;;;;7.22;1.58;;;8.70;99.90;;;;;;5084864;28;20680;-73
2023/04/25 06:58:03;;;;;;;6.25;1.30;;;9.00;99.90;;;;;;5076040;28;20031;-73
2023/04/25 07:00:28;;;;;;;8.43;2.97;;;9.40;99.90;;;;;;5091498;28;20057;-74
2023/04/25 07:02:54;;;;;;;6.07;1.38;;;9.60;99.90;;;;;;5093646;28;20109;-72
2023/04/25 07:05:20;;;;;;;5.82;1.65;;;9.60;99.90;;;;;;5093582;28;20052;-74
2023/04/25 07:07:45;;;;;;;10.80;1.98;;;9.60;99.90;;;;;;5076851;28;20039;-71
2023/04/25 07:10:11;;;;;;;8.25;2.00;;;9.50;99.90;;;;;;5076950;28;20039;-71
2023/04/25 07:12:36;;;;;;;5.72;1.40;;;9.10;99.90;;;;;;5111723;28;20419;-69
2023/04/25 07:15:06;;;;;;;10.32;1.50;;;8.80;99.90;;;;;;5110230;28;20071;-69
2023/04/25 07:17:32;;;;;;;7.75;2.05;;;8.40;99.90;;;;;;5111682;28;20487;-69
2023/04/25 07:19:58;;;;;;;7.75;2.25;;;8.20;99.90;;;;;;5111866;28;20047;-69
2023/04/25 07:22:24;;;;;;;9.48;2.03;;;8.00;99.90;;;;;;5111360;28;20031;-69
2023/04/25 07:24:49;;;;;;;9.55;1.52;;;7.80;99.90;;;;;;5111922;28;20867;-69
2023/04/25 07:27:15;;;;;;;6.90;1.55;;;7.90;99.90;;;;;;5111799;28;20113;-69
2023/04/25 07:29:41;;;;;;;10.85;2.95;;;8.20;99.90;;;;;;5111849;28;20046;-68
2023/04/25 07:32:07;;;;;;;6.68;1.73;;;8.40;99.90;;;;;;5093491;28;20047;-69
2023/04/25 07:34:36;;;;;;;9.27;1.85;;;8.40;99.90;;;;;;5111609;28;20035;-69
2023/04/25 07:37:02;;;;;;;9.02;1.92;;;8.50;99.90;;;;;;5093546;28;20043;-69
2023/04/25 07:39:28;;;;;;;6.75;1.55;;;8.50;99.90;;;;;;5093510;28;20379;-69
2023/04/25 07:41:53;;;;;;;11.00;1.83;;;8.60;99.90;;;;;;5111329;28;20040;-69
2023/04/25 07:44:19;;;;;;;9.93;2.17;;;8.90;99.90;;;;;;5111693;28;20059;-69
2023/04/25 07:46:44;;;;;;;4.68;0.93;;;9.20;99.90;;;;;;5093427;28;20066;-69
2023/04/25 07:49:10;;;;;;;8.10;1.23;;;9.30;99.90;;;;;;5111916;28;20040;-69
2023/04/25 07:51:36;;;;;;;7.03;1.45;;;9.30;99.90;;;;;;5111804;28;20039;-69
2023/04/25 07:54:01;;;;;;;10.63;1.40;;;9.40;99.90;;;;;;5114542;28;20366;-69
2023/04/25 07:56:27;;;;;;;8.13;1.88;;;9.30;99.90;;;;;;5115193;28;20039;-69
2023/04/25 07:58:52;;;;;;;4.70;1.42;;;9.20;99.90;;;;;;5115389;28;20044;-69
2023/04/25 08:01:20;;;;;;;7.15;1.33;;;9.00;99.90;;;;;;5115234;28;20044;-69
2023/04/25 08:03:46;;;;;;;4.93;1.20;;;8.90;99.90;;;;;;5115022;28;20036;-68
2023/04/25 08:06:11;;;;;;;7.63;1.55;;;8.70;99.90;;;;;;5114882;28;20411;-69
2023/04/25 08:08:37;;;;;;;5.28;1.30;;;8.50;99.90;;;;;;5115279;28;20036;-69
2023/04/25 08:11:02;;;;;;;12.20;3.28;;;8.50;99.90;;;;;;5115207;28;20521;-69
2023/04/25 08:13:28;;;;;;;8.32;1.67;;;8.50;99.90;;;;;;5115036;28;20125;-69
2023/04/25 08:15:54;;;;;;;5.60;1.52;;;8.60;99.90;;;;;;5115277;28;20510;-69
2023/04/25 08:18:20;;;;;;;8.52;1.48;;;8.60;99.90;;;;;;5115075;28;20310;-69
2023/04/25 08:20:45;;;;;;;7.57;1.50;;;8.80;99.90;;;;;;5115065;28;20031;-69
2023/04/25 08:23:11;;;;;;;6.80;1.30;;;9.30;99.90;;;;;;5114811;28;20611;-69
2023/04/25 08:25:36;;;;;;;7.40;1.48;;;9.80;99.90;;;;;;5114840;28;20479;-69
2023/04/25 08:28:02;;;;;;;5.53;1.20;;;9.90;99.90;;;;;;5114705;28;20035;-69
2023/04/25 08:30:29;;;;;;;4.53;0.98;;;9.50;99.90;;;;;;5114659;28;20039;-69
2023/04/25 08:32:54;;;;;;;4.35;0.90;;;8.70;99.90;;;;;;5114472;28;20426;-69
2023/04/25 08:35:20;;;;;;;2.28;0.82;;;8.30;99.90;;;;;;5096297;28;20069;-68
2023/04/25 08:37:46;;;;;;;8.93;1.15;;;7.80;99.90;;;;;;5114635;28;20064;-69
2023/04/25 08:40:14;;;;;;;3.25;1.20;;;7.70;99.90;;;;;;5114588;28;20043;-68
2023/04/25 08:42:41;;;;;;;3.50;0.65;;;7.60;99.90;;;;;;5095692;28;20031;-69
2023/04/25 08:45:08;;;;;;;6.45;1.20;;;7.70;99.90;;;;;;5114053;28;20047;-71
2023/04/25 08:47:34;;;;;;;5.22;0.85;;;7.60;99.90;;;;;;5114185;28;20058;-69
2023/04/25 08:50:02;;;;;;;7.07;1.25;;;7.60;99.90;;;;;;5114546;28;20497;-69
2023/04/25 08:52:35;;;;;;;3.05;0.80;;;7.60;99.90;;;;;;5114344;28;20040;-69
2023/04/25 08:55:01;;;;;;;5.43;1.00;;;7.70;99.90;;;;;;5095907;28;20044;-71
2023/04/25 08:57:28;;;;;;;5.57;1.48;;;7.80;99.90;;;;;;5114527;28;20031;-69
2023/04/25 08:59:55;;;;;;;2.42;0.77;;;8.00;99.90;;;;;;5114225;28;20403;-69
2023/04/25 09:02:21;;;;;;;5.05;0.90;;;8.00;99.90;;;;;;5095718;28;20036;-69
2023/04/25 09:04:47;;;;;;;4.07;1.35;;;8.10;99.90;;;;;;5113297;28;20096;-69
2023/04/25 09:07:15;;;;;;;3.85;1.00;;;8.20;99.90;;;;;;5113784;28;20407;-69
2023/04/25 09:09:41;;;;;;;5.53;0.88;;;8.60;99.90;;;;;;5113983;28;20507;-69
2023/04/25 09:12:07;;;;;;;5.00;1.13;;;8.80;99.90;;;;;;5113836;28;20164;-69
2023/04/25 09:14:33;;;;;;;5.05;1.30;;;9.10;99.90;;;;;;5113633;28;20126;-69
2023/04/25 09:17:00;;;;;;;4.45;1.10;;;9.30;99.90;;;;;;5113833;28;20031;-69
2023/04/25 09:19:31;;;;;;;6.88;1.00;;;9.60;99.90;;;;;;5113776;28;20509;-69
2023/04/25 09:22:04;;;;;;;9.13;1.23;;;9.70;99.90;;;;;;5113687;28;20042;-69
2023/04/25 09:24:38;;;;;;;11.05;2.03;;;9.60;99.90;;;;;;5113636;28;20107;-69
2023/04/25 09:27:17;;;;;;;5.22;1.30;;;9.50;99.90;;;;;;5113674;28;20509;-69
2023/04/25 09:29:43;;;;;;;6.53;1.33;;;9.60;99.90;;;;;;5095353;28;20040;-69
2023/04/25 09:32:22;;;;;;;12.30;1.83;;;9.50;99.90;;;;;;5113614;28;20050;-69
2023/04/25 09:34:50;;;;;;;7.65;1.23;;;9.60;99.90;;;;;;5113518;28;20040;-69
2023/04/25 09:37:27;;;;;;;13.05;2.22;;;10.00;99.90;;;;;;5113173;28;20068;-69
2023/04/25 09:39:55;;;;;;;11.45;1.30;;;10.10;99.90;;;;;;5113406;28;20058;-69
2023/04/25 09:42:25;;;;;;;6.63;1.05;;;10.00;99.90;;;;;;5113139;28;20039;-69
2023/04/25 09:44:55;;;;;;;8.57;1.08;;;10.20;99.90;;;;;;5113193;28;20043;-71
2023/04/25 09:47:23;;;;;;;6.63;1.70;;;10.50;99.90;;;;;;5113042;28;20028;-71
2023/04/25 09:49:50;;;;;;;6.30;1.40;;;10.20;99.90;;;;;;5113037;28;20047;-69
2023/04/25 09:52:20;;;;;;;5.45;1.70;;;9.70;99.90;;;;;;5112886;28;20051;-69
2023/04/25 09:54:47;;;;;;;3.42;1.40;;;9.30;99.90;;;;;;5113364;28;20380;-69
2023/04/25 09:57:16;;;;;;;5.97;2.17;;;8.90;99.90;;;;;;5112856;28;20063;-69
2023/04/25 09:59:47;;;;;;;8.43;1.70;;;8.90;99.90;;;;;;5112904;28;20045;-69
2023/04/25 10:02:15;;;;;;;12.45;2.15;;;8.80;99.90;;;;;;5112552;28;20034;-69
2023/04/25 10:04:41;;;;;;;13.68;2.40;;;8.90;99.90;;;;;;5112620;28;20548;-69
2023/04/25 10:07:08;;;;;;;11.70;1.85;;;9.20;99.90;;;;;;5094856;28;20152;-72
2023/04/25 10:09:37;;;;;;;7.68;1.38;;;9.40;99.90;;;;;;5112840;28;20044;-69
2023/04/25 10:12:04;;;;;;;3.92;1.80;;;9.40;99.90;;;;;;5112610;28;20089;-69
2023/04/25 10:14:31;;;;;;;4.65;1.23;;;9.40;99.90;;;;;;5112567;28;20499;-71
2023/04/25 10:16:58;;;;;;;7.00;1.85;;;9.70;99.90;;;;;;5112056;28;20084;-72
2023/04/25 10:19:24;;;;;;;7.43;1.70;;;9.70;99.90;;;;;;5094556;28;20051;-69
2023/04/25 10:21:53;;;;;;;8.73;1.60;;;10.00;99.90;;;;;;5112513;28;20042;-69
2023/04/25 10:24:20;;;;;;;6.85;1.60;;;10.20;99.90;;;;;;5094553;28;20125;-72
2023/04/25 10:26:47;;;;;;;9.75;2.60;;;10.10;99.90;;;;;;5112364;28;20077;-72
2023/04/25 10:29:12;;;;;;;5.28;1.50;;;9.90;99.90;;;;;;5112968;28;20479;-70
2023/04/25 10:31:46;;;;;;;5.70;1.00;;;9.60;99.90;;;;;;5112435;28;20071;-69
2023/04/25 10:34:12;;;;;;;7.60;1.27;;;8.80;99.90;;;;;;5112370;28;20043;-69
2023/04/25 10:36:38;;;;;;;8.65;1.40;;;8.80;99.90;;;;;;5112226;28;20080;-69
2023/04/25 10:39:09;;;;;;;4.30;1.45;;;8.80;99.90;;;;;;5112359;28;20027;-69
2023/04/25 10:41:48;;;;;;;5.20;1.30;;;8.80;99.90;;;;;;5112371;28;20039;-69
2023/04/25 10:44:15;;;;;;;6.72;1.85;;;8.30;99.90;;;;;;5112250;28;20377;-69
2023/04/25 10:46:40;;;;;;;9.40;2.20;;;7.90;99.90;;;;;;5112055;28;20074;-71
2023/04/25 10:49:08;;;;;;;6.03;1.70;;;7.90;99.90;;;;;;5112118;28;20031;-72
2023/04/25 10:51:35;;;;;;;7.97;2.75;;;8.00;99.90;;;;;;5112321;28;20114;-71
2023/04/25 10:54:06;;;;;;;5.03;1.35;;;8.40;99.90;;;;;;5112044;28;20445;-69
2023/04/25 10:56:37;;;;;;;12.00;1.55;;;8.60;99.90;;;;;;5111833;28;20114;-72
2023/04/25 10:59:25;;;;;;;7.40;1.75;;;9.00;99.90;;;;;;5112183;28;20039;-69
2023/04/25 11:01:54;;;;;;;6.88;1.40;;;9.10;99.90;;;;;;5093887;28;20452;-71
2023/04/25 11:04:31;;;;;;;9.43;1.30;;;9.20;99.90;;;;;;5112044;28;20047;-69
2023/04/25 11:07:06;;;;;;;9.35;1.80;;;9.40;99.90;;;;;;5111648;28;20032;-72
2023/04/25 11:09:33;;;;;;;3.75;1.50;;;9.20;99.90;;;;;;5112170;28;20035;-68
2023/04/25 11:12:00;;;;;;;6.63;1.65;;;8.70;99.90;;;;;;5111672;28;20031;-73
2023/04/25 11:14:26;;;;;;;8.32;1.65;;;8.20;99.90;;;;;;5093838;28;20127;-74
2023/04/25 11:16:56;;;;;;;6.90;1.70;;;8.20;99.90;;;;;;5093077;28;20067;-74
2023/04/25 11:19:23;;;;;;;6.07;1.92;;;8.20;99.90;;;;;;5111921;28;20082;-71
2023/04/25 11:21:49;;;;;;;6.15;2.38;;;8.40;99.90;;;;;;5111753;28;20092;-71
2023/04/25 11:24:17;;;;;;;8.07;1.73;;;8.60;99.90;;;;;;5111985;28;20075;-71
2023/04/25 11:26:43;;;;;;;8.85;2.10;;;8.80;99.90;;;;;;5093429;28;20046;-74
2023/04/25 11:29:09;;;;;;;7.40;1.75;;;9.10;99.90;;;;;;5096885;28;20104;-71
2023/04/25 11:31:34;;;;;;;4.90;1.10;;;9.20;99.90;;;;;;5116005;28;20039;-73
2023/04/25 11:34:00;;;;;;;5.82;1.50;;;9.30;99.90;;;;;;5115667;28;20035;-73
2023/04/25 11:36:26;;;;;;;7.90;1.52;;;9.50;99.90;;;;;;5097532;28;20142;-73
2023/04/25 11:38:53;;;;;;;8.25;1.90;;;9.50;99.90;;;;;;5097537;28;20066;-73
2023/04/25 11:41:20;;;;;;;4.88;1.25;;;9.40;99.90;;;;;;5112663;28;20039;-73
2023/04/25 11:43:45;;;;;;;5.38;1.38;;;9.60;99.90;;;;;;5107004;22;20051;-69
2023/04/25 11:46:11;;;;;;;4.85;1.23;;;9.60;99.80;;;;;;5074278;28;20040;-69
2023/04/25 11:48:38;;;;;;;4.25;1.15;;;9.70;99.00;;;;;;5074972;28;20685;-69
2023/04/25 11:51:04;;;;;;;10.40;1.75;;;9.70;98.10;;;;;;5073647;28;20407;-69
2023/04/25 11:53:30;;;;;;;7.35;1.88;;;10.00;98.90;;;;;;5073484;28;20040;-68
2023/04/25 11:55:56;;;;;;;3.15;1.42;;;9.90;97.80;;;;;;5074092;28;20028;-68
2023/04/25 11:58:21;;;;;;;5.30;1.77;;;9.80;96.20;;;;;;5072207;28;20032;-70
2023/04/25 12:00:47;;;;;;;5.80;1.15;;;9.90;96.30;;;;;;5075314;28;20520;-69
2023/04/25 12:03:12;;;;;;;7.22;1.95;;;9.80;97.10;;;;;;5074151;28;20028;-69
2023/04/25 12:05:39;;;;;;;4.93;1.50;;;10.00;98.00;;;;;;5074143;28;20067;-69
2023/04/25 12:08:16;;;;;;;10.68;2.83;;;10.00;97.10;;;;;;5074054;28;20519;-69
2023/04/25 12:10:44;;;;;;;9.30;1.77;;;9.90;96.20;;;;;;5074294;28;20114;-69
2023/04/25 12:13:24;;;;;;;7.03;1.33;;;9.90;95.90;;;;;;5074204;28;20048;-69
2023/04/25 12:15:50;;;;;;;10.30;1.20;;;9.90;91.70;;;;;;5072518;28;20415;-69
2023/04/25 12:18:28;;;;;;;5.88;1.17;;;9.90;93.90;;;;;;5074096;28;20043;-69
2023/04/25 12:20:54;;;;;;;8.15;1.80;;;10.10;95.00;;;;;;5074172;28;20040;-69
2023/04/25 12:23:27;;;;;;;7.57;1.42;;;10.30;95.50;;;;;;5073573;28;20025;-69
2023/04/25 12:25:53;;;;;;;7.72;1.50;;;10.30;94.60;;;;;;5073799;28;20072;-69
2023/04/25 12:28:21;;;;;;;8.95;1.60;;;10.30;93.00;;;;;;5073802;28;20064;-68
2023/04/25 12:30:54;;;;;;;8.85;1.52;;;10.40;93.80;;;;;;5072419;28;20060;-69
2023/04/25 12:33:21;;;;;;;10.90;1.42;;;10.60;94.50;;;;;;5060591;28;20041;-68
2023/04/25 12:35:47;;;;;;;6.75;1.58;;;10.70;95.30;;;;;;5072330;28;20532;-68
2023/04/25 12:38:24;;;;;;;4.97;1.20;;;10.60;94.50;;;;;;5073433;28;20040;-68
2023/04/25 12:40:50;;;;;;;5.65;1.20;;;10.40;91.30;;;;;;5072756;28;20115;-69
2023/04/25 12:43:15;;;;;;;5.68;2.05;;;10.30;92.40;;;;;;5071933;28;20589;-69
2023/04/25 12:45:41;;;;;;;8.40;1.40;;;10.40;93.20;;;;;;5073417;28;20408;-69
2023/04/25 12:48:06;;;;;;;5.05;1.20;;;10.50;93.90;;;;;;5073474;28;20037;-71
2023/04/25 12:50:32;;;;;;;5.63;1.13;;;10.40;92.10;;;;;;5071952;28;20046;-70